sensor_id;sensor_type;location;lat;lon;timestamp;temperature;humidity
11264;DHT22;5689;48.798;9.070;2022-10-31T00:01:38;11.60;99.90
11264;DHT22;5689;48.798;9.070;2022-10-31T00:04:06;11.50;99.90
11264;DHT22;5689;48.798;9.070;2022-10-31T00:06:34;11.60;99.90
11264;DHT22;5689;48.798;9.070;2022-10-31T00:09:04;11.60;99.90
11264;DHT22;5689;48.798;9.070;2022-10-31T00:11:32;11.50;99.90
11264;DHT22;5689;48.798;9.070;2022-10-31T00:14:00;11.40;99.90
11264;DHT22;5689;48.798;9.070;2022-10-31T00:16:29;11.40;99.90
11264;DHT22;5689;48.798;9.070;2022-10-31T00:19:01;11.30;99.90
11264;DHT22;5689;48.798;9.070;2022-10-31T00:21:30;11.30;99.90
11264;DHT22;5689;48.798;9.070;2022-10-31T00:23:59;11.30;99.90
11264;DHT22;5689;48.798;9.070;2022-10-31T00:26:27;11.50;99.90
11264;DHT22;5689;48.798;9.070;2022-10-31T00:28:57;11.30;99.90
11264;DHT22;5689;48.798;9.070;2022-10-31T00:31:26;11.30;99.90
11264;DHT22;5689;48.798;9.070;2022-10-31T00:33:55;11.20;99.90
11264;DHT22;5689;48.798;9.070;2022-10-31T00:36:27;11.10;99.90
11264;DHT22;5689;48.798;9.070;2022-10-31T00:38:54;11.10;99.90
11264;DHT22;5689;48.798;9.070;2022-10-31T00:41:23;11.20;99.90
11264;DHT22;5689;48.798;9.070;2022-10-31T00:43:51;11.10;99.90
11264;DHT22;5689;48.798;9.070;2022-10-31T00:46:19;11.00;99.90
11264;DHT22;5689;48.798;9.070;2022-10-31T00:48:49;11.10;99.90
11264;DHT22;5689;48.798;9.070;2022-10-31T00:51:17;11.00;99.90
11264;DHT22;5689;48.798;9.070;2022-10-31T00:53:47;11.00;99.90
11264;DHT22;5689;48.798;9.070;2022-10-31T00:56:15;10.90;99.90
11264;DHT22;5689;48.798;9.070;2022-10-31T00:58:43;11.00;99.90
11264;DHT22;5689;48.798;9.070;2022-10-31T01:01:11;11.10;99.90
11264;DHT22;5689;48.798;9.070;2022-10-31T01:03:39;11.00;99.90
11264;DHT22;5689;48.798;9.070;2022-10-31T01:06:12;10.90;99.90
11264;DHT22;5689;48.798;9.070;2022-10-31T01:08:41;10.80;99.90
11264;DHT22;5689;48.798;9.070;2022-10-31T01:11:14;10.80;99.90
11264;DHT22;5689;48.798;9.070;2022-10-31T01:13:43;10.80;99.90
11264;DHT22;5689;48.798;9.070;2022-10-31T01:16:13;10.80;99.90
11264;DHT22;5689;48.798;9.070;2022-10-31T01:18:42;10.80;99.90
11264;DHT22;5689;48.798;9.070;2022-10-31T01:21:12;10.80;99.90
11264;DHT22;5689;48.798;9.070;2022-10-31T01:23:40;10.90;99.90
11264;DHT22;5689;48.798;9.070;2022-10-31T01:26:14;10.90;99.90
11264;DHT22;5689;48.798;9.070;2022-10-31T01:28:47;10.90;99.90
11264;DHT22;5689;48.798;9.070;2022-10-31T01:31:17;10.90;99.90
11264;DHT22;5689;48.798;9.070;2022-10-31T01:33:45;10.90;99.90
11264;DHT22;5689;48.798;9.070;2022-10-31T01:36:17;10.90;99.90
11264;DHT22;5689;48.798;9.070;2022-10-31T01:38:45;10.80;99.90
11264;DHT22;5689;48.798;9.070;2022-10-31T01:41:21;10.70;99.90
11264;DHT22;5689;48.798;9.070;2022-10-31T01:43:52;10.70;99.90
11264;DHT22;5689;48.798;9.070;2022-10-31T01:46:23;10.80;99.90
11264;DHT22;5689;48.798;9.070;2022-10-31T01:48:53;10.90;99.90
11264;DHT22;5689;48.798;9.070;2022-10-31T01:51:25;10.90;99.90
11264;DHT22;5689;48.798;9.070;2022-10-31T01:53:56;10.90;99.90
11264;DHT22;5689;48.798;9.070;2022-10-31T01:56:27;10.80;99.90
11264;DHT22;5689;48.798;9.070;2022-10-31T01:58:56;10.80;99.90
11264;DHT22;5689;48.798;9.070;2022-10-31T02:01:27;10.80;99.90
11264;DHT22;5689;48.798;9.070;2022-10-31T02:03:56;10.70;99.90
11264;DHT22;5689;48.798;9.070;2022-10-31T02:06:30;10.60;99.90
11264;DHT22;5689;48.798;9.070;2022-10-31T02:09:00;10.50;99.90
11264;DHT22;5689;48.798;9.070;2022-10-31T02:11:31;10.40;99.90
11264;DHT22;5689;48.798;9.070;2022-10-31T02:14:02;10.40;99.90
11264;DHT22;5689;48.798;9.070;2022-10-31T02:16:30;10.50;99.90
11264;DHT22;5689;48.798;9.070;2022-10-31T02:18:58;10.40;99.90
11264;DHT22;5689;48.798;9.070;2022-10-31T02:21:33;10.50;99.90
11264;DHT22;5689;48.798;9.070;2022-10-31T02:24:40;10.70;99.90
11264;DHT22;5689;48.798;9.070;2022-10-31T02:30:10;10.60;99.90
11264;DHT22;5689;48.798;9.070;2022-10-31T02:33:17;10.40;99.90
11264;DHT22;5689;48.798;9.070;2022-10-31T02:35:58;10.40;99.90
11264;DHT22;5689;48.798;9.070;2022-10-31T02:38:42;10.50;99.90
11264;DHT22;5689;48.798;9.070;2022-10-31T02:41:26;10.40;99.90
11264;DHT22;5689;48.798;9.070;2022-10-31T02:44:07;10.40;99.90
11264;DHT22;5689;48.798;9.070;2022-10-31T02:46:39;10.30;99.90
11264;DHT22;5689;48.798;9.070;2022-10-31T02:49:22;10.20;99.90
11264;DHT22;5689;48.798;9.070;2022-10-31T02:51:52;10.00;99.90
11264;DHT22;5689;48.798;9.070;2022-10-31T02:54:23;10.00;99.90
11264;DHT22;5689;48.798;9.070;2022-10-31T02:56:55;10.00;99.90
11264;DHT22;5689;48.798;9.070;2022-10-31T02:59:24;10.10;99.90
11264;DHT22;5689;48.798;9.070;2022-10-31T03:02:12;10.00;99.90
11264;DHT22;5689;48.798;9.070;2022-10-31T03:05:02;9.90;99.90
11264;DHT22;5689;48.798;9.070;2022-10-31T03:07:39;10.00;99.90
11264;DHT22;5689;48.798;9.070;2022-10-31T03:10:16;10.00;99.90
11264;DHT22;5689;48.798;9.070;2022-10-31T03:12:52;9.90;99.90
11264;DHT22;5689;48.798;9.070;2022-10-31T03:15:25;9.90;99.90
11264;DHT22;5689;48.798;9.070;2022-10-31T03:17:59;10.00;99.90
11264;DHT22;5689;48.798;9.070;2022-10-31T03:20:33;10.20;99.90
11264;DHT22;5689;48.798;9.070;2022-10-31T03:23:06;10.10;99.90
11264;DHT22;5689;48.798;9.070;2022-10-31T03:25:37;10.10;99.90
11264;DHT22;5689;48.798;9.070;2022-10-31T03:28:07;10.20;99.90
11264;DHT22;5689;48.798;9.070;2022-10-31T03:30:38;10.10;99.90
11264;DHT22;5689;48.798;9.070;2022-10-31T03:33:10;10.20;99.90
11264;DHT22;5689;48.798;9.070;2022-10-31T03:35:42;10.20;99.90
11264;DHT22;5689;48.798;9.070;2022-10-31T03:38:12;10.10;99.90
11264;DHT22;5689;48.798;9.070;2022-10-31T03:40:44;10.20;99.90
11264;DHT22;5689;48.798;9.070;2022-10-31T03:43:16;10.20;99.90
11264;DHT22;5689;48.798;9.070;2022-10-31T03:45:47;10.10;99.90
11264;DHT22;5689;48.798;9.070;2022-10-31T03:48:16;10.00;99.90
11264;DHT22;5689;48.798;9.070;2022-10-31T03:50:52;10.20;99.90
11264;DHT22;5689;48.798;9.070;2022-10-31T03:53:25;10.10;99.90
11264;DHT22;5689;48.798;9.070;2022-10-31T03:56:00;10.00;99.90
11264;DHT22;5689;48.798;9.070;2022-10-31T03:58:34;9.90;99.90
11264;DHT22;5689;48.798;9.070;2022-10-31T04:01:07;9.90;99.90
11264;DHT22;5689;48.798;9.070;2022-10-31T04:03:39;9.90;99.90
11264;DHT22;5689;48.798;9.070;2022-10-31T04:06:14;9.90;99.90
11264;DHT22;5689;48.798;9.070;2022-10-31T04:08:47;9.90;99.90
11264;DHT22;5689;48.798;9.070;2022-10-31T04:11:23;9.90;99.90
11264;DHT22;5689;48.798;9.070;2022-10-31T04:14:29;10.10;99.90
11264;DHT22;5689;48.798;9.070;2022-10-31T04:17:00;10.10;99.90
11264;DHT22;5689;48.798;9.070;2022-10-31T04:19:34;9.90;99.90
11264;DHT22;5689;48.798;9.070;2022-10-31T04:22:04;9.80;99.90
11264;DHT22;5689;48.798;9.070;2022-10-31T04:24:32;9.70;99.90
11264;DHT22;5689;48.798;9.070;2022-10-31T04:27:00;9.80;99.90
11264;DHT22;5689;48.798;9.070;2022-10-31T04:29:29;10.00;99.90
11264;DHT22;5689;48.798;9.070;2022-10-31T04:31:57;10.00;99.90
11264;DHT22;5689;48.798;9.070;2022-10-31T04:34:25;9.70;99.90
11264;DHT22;5689;48.798;9.070;2022-10-31T04:36:53;9.60;99.90
11264;DHT22;5689;48.798;9.070;2022-10-31T04:39:22;9.70;99.90
11264;DHT22;5689;48.798;9.070;2022-10-31T04:42:17;9.90;99.90
11264;DHT22;5689;48.798;9.070;2022-10-31T04:44:45;9.70;99.90
11264;DHT22;5689;48.798;9.070;2022-10-31T04:47:14;9.60;99.90
11264;DHT22;5689;48.798;9.070;2022-10-31T04:49:42;9.90;99.90
11264;DHT22;5689;48.798;9.070;2022-10-31T04:52:12;9.70;99.90
11264;DHT22;5689;48.798;9.070;2022-10-31T04:54:41;9.70;99.90
11264;DHT22;5689;48.798;9.070;2022-10-31T04:57:28;9.70;99.90
11264;DHT22;5689;48.798;9.070;2022-10-31T04:59:59;9.70;99.90
11264;DHT22;5689;48.798;9.070;2022-10-31T05:02:27;9.60;99.90
11264;DHT22;5689;48.798;9.070;2022-10-31T05:04:56;9.40;99.90
11264;DHT22;5689;48.798;9.070;2022-10-31T05:07:24;9.30;99.90
11264;DHT22;5689;48.798;9.070;2022-10-31T05:09:54;9.30;99.90
11264;DHT22;5689;48.798;9.070;2022-10-31T05:12:22;9.30;99.90
11264;DHT22;5689;48.798;9.070;2022-10-31T05:15:13;9.20;99.90
11264;DHT22;5689;48.798;9.070;2022-10-31T05:18:00;9.30;99.90
11264;DHT22;5689;48.798;9.070;2022-10-31T05:20:47;9.30;99.90
11264;DHT22;5689;48.798;9.070;2022-10-31T05:23:28;9.20;99.90
11264;DHT22;5689;48.798;9.070;2022-10-31T05:25:57;9.20;99.90
11264;DHT22;5689;48.798;9.070;2022-10-31T05:28:26;9.10;99.90
11264;DHT22;5689;48.798;9.070;2022-10-31T05:30:54;9.20;99.90
11264;DHT22;5689;48.798;9.070;2022-10-31T05:33:22;9.20;99.90
11264;DHT22;5689;48.798;9.070;2022-10-31T05:35:55;9.40;99.90
11264;DHT22;5689;48.798;9.070;2022-10-31T05:38:30;9.30;99.90
11264;DHT22;5689;48.798;9.070;2022-10-31T05:41:08;9.20;99.90
11264;DHT22;5689;48.798;9.070;2022-10-31T05:43:39;9.20;99.90
11264;DHT22;5689;48.798;9.070;2022-10-31T05:46:07;9.10;99.90
11264;DHT22;5689;48.798;9.070;2022-10-31T05:48:54;9.10;99.90
11264;DHT22;5689;48.798;9.070;2022-10-31T05:51:58;9.00;99.90
11264;DHT22;5689;48.798;9.070;2022-10-31T05:54:35;9.00;99.90
11264;DHT22;5689;48.798;9.070;2022-10-31T05:57:05;9.00;99.90
11264;DHT22;5689;48.798;9.070;2022-10-31T05:59:33;9.00;99.90
11264;DHT22;5689;48.798;9.070;2022-10-31T06:02:01;9.00;99.90
11264;DHT22;5689;48.798;9.070;2022-10-31T06:04:47;9.10;99.90
11264;DHT22;5689;48.798;9.070;2022-10-31T06:07:16;9.10;99.90
11264;DHT22;5689;48.798;9.070;2022-10-31T06:09:44;9.00;99.90
11264;DHT22;5689;48.798;9.070;2022-10-31T06:12:13;9.40;99.90
11264;DHT22;5689;48.798;9.070;2022-10-31T06:15:00;9.60;99.90
11264;DHT22;5689;48.798;9.070;2022-10-31T06:17:28;9.50;99.90
11264;DHT22;5689;48.798;9.070;2022-10-31T06:20:16;9.30;99.90
11264;DHT22;5689;48.798;9.070;2022-10-31T06:22:54;9.30;99.90
11264;DHT22;5689;48.798;9.070;2022-10-31T06:25:23;9.20;99.90
11264;DHT22;5689;48.798;9.070;2022-10-31T06:27:53;9.40;99.90
11264;DHT22;5689;48.798;9.070;2022-10-31T06:30:25;9.40;99.90
11264;DHT22;5689;48.798;9.070;2022-10-31T06:32:53;9.40;99.90
11264;DHT22;5689;48.798;9.070;2022-10-31T06:35:21;9.30;99.90
11264;DHT22;5689;48.798;9.070;2022-10-31T06:37:51;9.40;99.90
11264;DHT22;5689;48.798;9.070;2022-10-31T06:40:28;9.40;99.90
11264;DHT22;5689;48.798;9.070;2022-10-31T06:43:16;9.40;99.90
11264;DHT22;5689;48.798;9.070;2022-10-31T06:45:45;9.60;99.90
11264;DHT22;5689;48.798;9.070;2022-10-31T06:48:22;9.70;99.90
11264;DHT22;5689;48.798;9.070;2022-10-31T06:51:10;10.00;99.90
11264;DHT22;5689;48.798;9.070;2022-10-31T06:53:38;10.00;99.90
11264;DHT22;5689;48.798;9.070;2022-10-31T06:56:08;10.00;99.90
11264;DHT22;5689;48.798;9.070;2022-10-31T06:58:42;10.00;99.90
11264;DHT22;5689;48.798;9.070;2022-10-31T07:01:12;10.00;99.90
11264;DHT22;5689;48.798;9.070;2022-10-31T07:03:40;10.00;99.90
11264;DHT22;5689;48.798;9.070;2022-10-31T07:06:08;10.20;99.90
11264;DHT22;5689;48.798;9.070;2022-10-31T07:08:37;10.40;99.90
11264;DHT22;5689;48.798;9.070;2022-10-31T07:11:06;10.40;99.90
11264;DHT22;5689;48.798;9.070;2022-10-31T07:13:34;10.50;99.90
11264;DHT22;5689;48.798;9.070;2022-10-31T07:16:07;10.80;99.90
11264;DHT22;5689;48.798;9.070;2022-10-31T07:18:37;10.90;99.90
11264;DHT22;5689;48.798;9.070;2022-10-31T07:21:05;11.30;99.90
11264;DHT22;5689;48.798;9.070;2022-10-31T07:23:33;11.70;99.90
11264;DHT22;5689;48.798;9.070;2022-10-31T07:26:37;12.10;99.90
11264;DHT22;5689;48.798;9.070;2022-10-31T07:29:05;12.10;99.90
11264;DHT22;5689;48.798;9.070;2022-10-31T07:31:34;12.40;99.90
11264;DHT22;5689;48.798;9.070;2022-10-31T07:34:09;12.60;99.90
11264;DHT22;5689;48.798;9.070;2022-10-31T07:36:55;12.90;99.90
11264;DHT22;5689;48.798;9.070;2022-10-31T07:39:23;13.60;99.90
11264;DHT22;5689;48.798;9.070;2022-10-31T07:41:51;13.90;99.90
11264;DHT22;5689;48.798;9.070;2022-10-31T07:44:19;13.70;99.90
11264;DHT22;5689;48.798;9.070;2022-10-31T07:47:01;13.50;99.90
11264;DHT22;5689;48.798;9.070;2022-10-31T07:49:47;13.30;99.90
11264;DHT22;5689;48.798;9.070;2022-10-31T07:52:24;13.20;99.90
11264;DHT22;5689;48.798;9.070;2022-10-31T07:55:15;13.20;99.90
11264;DHT22;5689;48.798;9.070;2022-10-31T07:57:53;13.90;99.90
11264;DHT22;5689;48.798;9.070;2022-10-31T08:00:22;14.20;99.90
11264;DHT22;5689;48.798;9.070;2022-10-31T08:02:58;14.80;99.90
11264;DHT22;5689;48.798;9.070;2022-10-31T08:05:45;15.50;99.90
11264;DHT22;5689;48.798;9.070;2022-10-31T08:08:32;16.00;99.90
11264;DHT22;5689;48.798;9.070;2022-10-31T08:11:01;15.90;99.90
11264;DHT22;5689;48.798;9.070;2022-10-31T08:13:29;15.80;99.90
11264;DHT22;5689;48.798;9.070;2022-10-31T08:15:58;15.80;99.90
11264;DHT22;5689;48.798;9.070;2022-10-31T08:18:34;15.90;99.90
11264;DHT22;5689;48.798;9.070;2022-10-31T08:21:06;16.00;99.90
11264;DHT22;5689;48.798;9.070;2022-10-31T08:23:34;16.10;99.90
11264;DHT22;5689;48.798;9.070;2022-10-31T08:26:03;16.00;99.90
11264;DHT22;5689;48.798;9.070;2022-10-31T08:28:32;15.90;99.90
11264;DHT22;5689;48.798;9.070;2022-10-31T08:31:02;16.10;99.90
11264;DHT22;5689;48.798;9.070;2022-10-31T08:33:40;15.80;99.90
11264;DHT22;5689;48.798;9.070;2022-10-31T08:36:43;15.60;99.90
11264;DHT22;5689;48.798;9.070;2022-10-31T08:39:18;15.30;99.90
11264;DHT22;5689;48.798;9.070;2022-10-31T08:41:47;15.20;99.90
11264;DHT22;5689;48.798;9.070;2022-10-31T08:44:15;14.90;99.90
11264;DHT22;5689;48.798;9.070;2022-10-31T08:46:43;14.90;99.90
11264;DHT22;5689;48.798;9.070;2022-10-31T08:49:12;15.10;99.90
11264;DHT22;5689;48.798;9.070;2022-10-31T08:51:42;15.30;99.90
11264;DHT22;5689;48.798;9.070;2022-10-31T08:54:10;15.50;99.90
11264;DHT22;5689;48.798;9.070;2022-10-31T08:56:58;15.90;99.90
11264;DHT22;5689;48.798;9.070;2022-10-31T08:59:34;16.80;99.90
11264;DHT22;5689;48.798;9.070;2022-10-31T09:02:21;17.40;99.90
11264;DHT22;5689;48.798;9.070;2022-10-31T09:04:53;17.60;99.90
11264;DHT22;5689;48.798;9.070;2022-10-31T09:07:21;18.20;99.90
11264;DHT22;5689;48.798;9.070;2022-10-31T09:09:49;18.70;99.90
11264;DHT22;5689;48.798;9.070;2022-10-31T09:12:18;18.50;99.90
11264;DHT22;5689;48.798;9.070;2022-10-31T09:15:09;19.40;99.90
11264;DHT22;5689;48.798;9.070;2022-10-31T09:17:52;18.10;99.90
11264;DHT22;5689;48.798;9.070;2022-10-31T09:20:31;18.40;99.90
11264;DHT22;5689;48.798;9.070;2022-10-31T09:23:01;17.60;99.90
11264;DHT22;5689;48.798;9.070;2022-10-31T09:25:30;17.60;99.90
11264;DHT22;5689;48.798;9.070;2022-10-31T09:28:23;18.10;99.90
11264;DHT22;5689;48.798;9.070;2022-10-31T09:30:53;18.60;99.90
11264;DHT22;5689;48.798;9.070;2022-10-31T09:33:40;19.10;99.90
11264;DHT22;5689;48.798;9.070;2022-10-31T09:36:33;18.60;99.90
11264;DHT22;5689;48.798;9.070;2022-10-31T09:39:02;19.00;99.90
11264;DHT22;5689;48.798;9.070;2022-10-31T09:41:40;19.00;99.90
11264;DHT22;5689;48.798;9.070;2022-10-31T09:44:18;19.20;99.90
11264;DHT22;5689;48.798;9.070;2022-10-31T09:46:57;18.90;99.90
11264;DHT22;5689;48.798;9.070;2022-10-31T09:49:46;18.30;99.90
11264;DHT22;5689;48.798;9.070;2022-10-31T09:52:22;18.90;99.90
11264;DHT22;5689;48.798;9.070;2022-10-31T09:54:54;19.70;99.90
11264;DHT22;5689;48.798;9.070;2022-10-31T09:57:26;19.00;99.90
11264;DHT22;5689;48.798;9.070;2022-10-31T09:59:56;19.00;99.90
11264;DHT22;5689;48.798;9.070;2022-10-31T10:02:30;19.80;99.90
11264;DHT22;5689;48.798;9.070;2022-10-31T10:05:03;19.70;99.90
11264;DHT22;5689;48.798;9.070;2022-10-31T10:07:43;19.40;99.90
11264;DHT22;5689;48.798;9.070;2022-10-31T10:10:39;19.80;99.90
11264;DHT22;5689;48.798;9.070;2022-10-31T10:13:55;19.80;99.90
11264;DHT22;5689;48.798;9.070;2022-10-31T10:16:39;18.60;99.90
11264;DHT22;5689;48.798;9.070;2022-10-31T10:19:19;18.90;99.90
11264;DHT22;5689;48.798;9.070;2022-10-31T10:21:56;20.10;99.90
11264;DHT22;5689;48.798;9.070;2022-10-31T10:24:38;20.20;99.90
11264;DHT22;5689;48.798;9.070;2022-10-31T10:27:19;21.20;99.90
11264;DHT22;5689;48.798;9.070;2022-10-31T10:29:52;21.40;99.90
11264;DHT22;5689;48.798;9.070;2022-10-31T10:32:27;21.10;99.90
11264;DHT22;5689;48.798;9.070;2022-10-31T10:35:02;20.60;99.90
11264;DHT22;5689;48.798;9.070;2022-10-31T10:37:39;20.70;99.90
11264;DHT22;5689;48.798;9.070;2022-10-31T10:40:15;20.90;99.90
11264;DHT22;5689;48.798;9.070;2022-10-31T10:42:45;21.20;99.90
11264;DHT22;5689;48.798;9.070;2022-10-31T10:45:37;21.40;99.90
11264;DHT22;5689;48.798;9.070;2022-10-31T10:48:29;21.60;99.90
11264;DHT22;5689;48.798;9.070;2022-10-31T10:51:00;21.20;99.90
11264;DHT22;5689;48.798;9.070;2022-10-31T10:53:39;21.30;99.90
11264;DHT22;5689;48.798;9.070;2022-10-31T10:56:38;21.70;99.90
11264;DHT22;5689;48.798;9.070;2022-10-31T10:59:11;21.40;99.90
11264;DHT22;5689;48.798;9.070;2022-10-31T11:01:41;20.60;99.90
11264;DHT22;5689;48.798;9.070;2022-10-31T11:04:24;20.40;99.90
11264;DHT22;5689;48.798;9.070;2022-10-31T11:07:02;20.10;99.90
11264;DHT22;5689;48.798;9.070;2022-10-31T11:09:32;20.70;99.90
11264;DHT22;5689;48.798;9.070;2022-10-31T11:12:07;20.00;99.90
11264;DHT22;5689;48.798;9.070;2022-10-31T11:14:42;20.50;99.90
11264;DHT22;5689;48.798;9.070;2022-10-31T11:17:20;20.70;99.90
11264;DHT22;5689;48.798;9.070;2022-10-31T11:19:48;21.40;99.90
11264;DHT22;5689;48.798;9.070;2022-10-31T11:22:26;21.10;99.90
11264;DHT22;5689;48.798;9.070;2022-10-31T11:24:54;21.90;99.90
11264;DHT22;5689;48.798;9.070;2022-10-31T11:27:25;21.60;99.90
11264;DHT22;5689;48.798;9.070;2022-10-31T11:30:04;21.80;99.90
11264;DHT22;5689;48.798;9.070;2022-10-31T11:32:32;20.80;99.90
11264;DHT22;5689;48.798;9.070;2022-10-31T11:35:01;20.40;99.90
11264;DHT22;5689;48.798;9.070;2022-10-31T11:37:34;20.50;99.90
11264;DHT22;5689;48.798;9.070;2022-10-31T11:40:05;21.30;99.90
11264;DHT22;5689;48.798;9.070;2022-10-31T11:42:38;21.60;99.90
11264;DHT22;5689;48.798;9.070;2022-10-31T11:45:15;20.70;99.90
11264;DHT22;5689;48.798;9.070;2022-10-31T11:47:46;20.30;99.90
11264;DHT22;5689;48.798;9.070;2022-10-31T11:50:20;19.80;99.90
11264;DHT22;5689;48.798;9.070;2022-10-31T11:52:50;19.90;99.90
11264;DHT22;5689;48.798;9.070;2022-10-31T11:55:31;20.10;99.90
11264;DHT22;5689;48.798;9.070;2022-10-31T11:58:01;20.80;99.90
11264;DHT22;5689;48.798;9.070;2022-10-31T12:00:31;20.20;99.90
11264;DHT22;5689;48.798;9.070;2022-10-31T12:03:19;19.80;99.90
11264;DHT22;5689;48.798;9.070;2022-10-31T12:05:53;19.50;99.90
11264;DHT22;5689;48.798;9.070;2022-10-31T12:08:25;19.50;99.90
11264;DHT22;5689;48.798;9.070;2022-10-31T12:10:59;19.80;99.90
11264;DHT22;5689;48.798;9.070;2022-10-31T12:13:36;19.30;99.90
11264;DHT22;5689;48.798;9.070;2022-10-31T12:16:11;19.70;99.90
11264;DHT22;5689;48.798;9.070;2022-10-31T12:18:56;20.20;99.90
11264;DHT22;5689;48.798;9.070;2022-10-31T12:21:39;20.80;99.90
11264;DHT22;5689;48.798;9.070;2022-10-31T12:24:18;21.40;99.90
11264;DHT22;5689;48.798;9.070;2022-10-31T12:26:57;20.90;99.90
11264;DHT22;5689;48.798;9.070;2022-10-31T12:29:47;21.10;99.90
11264;DHT22;5689;48.798;9.070;2022-10-31T12:32:31;21.50;99.90
11264;DHT22;5689;48.798;9.070;2022-10-31T12:35:18;21.20;99.90
11264;DHT22;5689;48.798;9.070;2022-10-31T12:38:07;20.50;99.90
11264;DHT22;5689;48.798;9.070;2022-10-31T12:40:51;20.30;99.90
11264;DHT22;5689;48.798;9.070;2022-10-31T12:43:32;20.00;99.90
11264;DHT22;5689;48.798;9.070;2022-10-31T12:46:07;19.80;99.90
11264;DHT22;5689;48.798;9.070;2022-10-31T12:48:47;19.80;99.90
11264;DHT22;5689;48.798;9.070;2022-10-31T12:51:26;20.00;99.90
11264;DHT22;5689;48.798;9.070;2022-10-31T12:54:09;19.90;99.90
11264;DHT22;5689;48.798;9.070;2022-10-31T12:56:47;19.70;99.90
11264;DHT22;5689;48.798;9.070;2022-10-31T12:59:21;19.50;99.90
11264;DHT22;5689;48.798;9.070;2022-10-31T13:01:54;19.70;99.90
11264;DHT22;5689;48.798;9.070;2022-10-31T13:04:33;19.40;99.90
11264;DHT22;5689;48.798;9.070;2022-10-31T13:07:05;18.90;99.90
11264;DHT22;5689;48.798;9.070;2022-10-31T13:09:40;18.60;99.90
11264;DHT22;5689;48.798;9.070;2022-10-31T13:12:11;19.00;99.90
11264;DHT22;5689;48.798;9.070;2022-10-31T13:14:43;19.30;99.90
11264;DHT22;5689;48.798;9.070;2022-10-31T13:17:21;19.10;99.90
11264;DHT22;5689;48.798;9.070;2022-10-31T13:19:53;18.80;99.90
11264;DHT22;5689;48.798;9.070;2022-10-31T13:22:25;18.60;99.90
11264;DHT22;5689;48.798;9.070;2022-10-31T13:24:58;18.60;99.90
11264;DHT22;5689;48.798;9.070;2022-10-31T13:27:29;18.50;99.90
11264;DHT22;5689;48.798;9.070;2022-10-31T13:30:01;19.10;99.90
11264;DHT22;5689;48.798;9.070;2022-10-31T13:32:38;19.60;99.90
11264;DHT22;5689;48.798;9.070;2022-10-31T13:35:14;20.60;99.90
11264;DHT22;5689;48.798;9.070;2022-10-31T13:37:48;21.10;99.90
11264;DHT22;5689;48.798;9.070;2022-10-31T13:40:32;22.10;99.90
11264;DHT22;5689;48.798;9.070;2022-10-31T13:43:07;23.60;99.90
11264;DHT22;5689;48.798;9.070;2022-10-31T13:45:48;23.50;99.90
11264;DHT22;5689;48.798;9.070;2022-10-31T13:48:35;25.20;99.90
11264;DHT22;5689;48.798;9.070;2022-10-31T13:51:05;26.60;99.00
11264;DHT22;5689;48.798;9.070;2022-10-31T13:53:43;25.90;98.30
11264;DHT22;5689;48.798;9.070;2022-10-31T13:56:21;22.60;99.90
11264;DHT22;5689;48.798;9.070;2022-10-31T13:59:15;22.80;99.90
11264;DHT22;5689;48.798;9.070;2022-10-31T14:01:51;21.80;99.90
11264;DHT22;5689;48.798;9.070;2022-10-31T14:04:23;21.10;99.90
11264;DHT22;5689;48.798;9.070;2022-10-31T14:06:56;20.90;99.90
11264;DHT22;5689;48.798;9.070;2022-10-31T14:09:29;21.30;99.90
11264;DHT22;5689;48.798;9.070;2022-10-31T14:12:01;21.00;99.90
11264;DHT22;5689;48.798;9.070;2022-10-31T14:14:40;20.50;99.90
11264;DHT22;5689;48.798;9.070;2022-10-31T14:17:18;20.30;99.90
11264;DHT22;5689;48.798;9.070;2022-10-31T14:22:52;20.70;99.90
11264;DHT22;5689;48.798;9.070;2022-10-31T14:25:38;20.50;99.90
11264;DHT22;5689;48.798;9.070;2022-10-31T14:28:20;20.20;99.90
11264;DHT22;5689;48.798;9.070;2022-10-31T14:30:53;20.00;99.90
11264;DHT22;5689;48.798;9.070;2022-10-31T14:33:22;20.10;99.90
11264;DHT22;5689;48.798;9.070;2022-10-31T14:35:53;20.30;99.90
11264;DHT22;5689;48.798;9.070;2022-10-31T14:44:32;20.50;99.90
11264;DHT22;5689;48.798;9.070;2022-10-31T14:47:12;20.80;99.90
11264;DHT22;5689;48.798;9.070;2022-10-31T14:50:14;20.90;99.90
11264;DHT22;5689;48.798;9.070;2022-10-31T14:52:49;20.40;99.90
11264;DHT22;5689;48.798;9.070;2022-10-31T14:55:19;20.70;99.90
11264;DHT22;5689;48.798;9.070;2022-10-31T14:57:51;20.50;99.90
11264;DHT22;5689;48.798;9.070;2022-10-31T15:00:21;20.10;99.90
11264;DHT22;5689;48.798;9.070;2022-10-31T15:02:58;19.90;99.90
11264;DHT22;5689;48.798;9.070;2022-10-31T15:05:28;19.70;99.90
11264;DHT22;5689;48.798;9.070;2022-10-31T15:07:58;19.60;99.90
11264;DHT22;5689;48.798;9.070;2022-10-31T15:10:29;19.40;99.90
11264;DHT22;5689;48.798;9.070;2022-10-31T15:13:09;19.40;99.90
11264;DHT22;5689;48.798;9.070;2022-10-31T15:15:38;19.30;99.90
11264;DHT22;5689;48.798;9.070;2022-10-31T15:18:15;18.90;99.90
11264;DHT22;5689;48.798;9.070;2022-10-31T15:20:45;18.50;99.90
11264;DHT22;5689;48.798;9.070;2022-10-31T15:23:17;18.10;99.90
11264;DHT22;5689;48.798;9.070;2022-10-31T15:25:49;18.00;99.90
11264;DHT22;5689;48.798;9.070;2022-10-31T15:28:23;17.90;99.90
11264;DHT22;5689;48.798;9.070;2022-10-31T15:30:52;18.00;99.90
11264;DHT22;5689;48.798;9.070;2022-10-31T15:33:22;17.80;99.90
11264;DHT22;5689;48.798;9.070;2022-10-31T15:35:55;17.50;99.90
11264;DHT22;5689;48.798;9.070;2022-10-31T15:38:24;17.00;99.90
11264;DHT22;5689;48.798;9.070;2022-10-31T15:40:58;16.80;99.90
11264;DHT22;5689;48.798;9.070;2022-10-31T15:43:30;16.60;99.90
11264;DHT22;5689;48.798;9.070;2022-10-31T15:45:59;16.30;99.90
11264;DHT22;5689;48.798;9.070;2022-10-31T15:48:28;16.30;99.90
11264;DHT22;5689;48.798;9.070;2022-10-31T15:50:58;16.30;99.90
11264;DHT22;5689;48.798;9.070;2022-10-31T15:53:30;16.30;99.90
11264;DHT22;5689;48.798;9.070;2022-10-31T15:56:02;16.40;99.90
11264;DHT22;5689;48.798;9.070;2022-10-31T15:58:33;16.20;99.90
11264;DHT22;5689;48.798;9.070;2022-10-31T16:01:20;16.30;99.90
11264;DHT22;5689;48.798;9.070;2022-10-31T16:04:22;16.20;99.90
11264;DHT22;5689;48.798;9.070;2022-10-31T16:07:02;16.00;99.90
11264;DHT22;5689;48.798;9.070;2022-10-31T16:09:30;15.80;99.90
11264;DHT22;5689;48.798;9.070;2022-10-31T16:11:59;15.60;99.90
11264;DHT22;5689;48.798;9.070;2022-10-31T16:14:29;15.40;99.90
11264;DHT22;5689;48.798;9.070;2022-10-31T16:17:01;15.30;99.90
11264;DHT22;5689;48.798;9.070;2022-10-31T16:19:33;15.30;99.90
11264;DHT22;5689;48.798;9.070;2022-10-31T16:22:04;15.20;99.90
11264;DHT22;5689;48.798;9.070;2022-10-31T16:24:37;15.10;99.90
11264;DHT22;5689;48.798;9.070;2022-10-31T16:27:18;15.00;99.90
11264;DHT22;5689;48.798;9.070;2022-10-31T16:29:50;14.90;99.90
11264;DHT22;5689;48.798;9.070;2022-10-31T16:32:29;14.80;99.90
11264;DHT22;5689;48.798;9.070;2022-10-31T16:35:17;14.60;99.90
11264;DHT22;5689;48.798;9.070;2022-10-31T16:37:45;14.70;99.90
11264;DHT22;5689;48.798;9.070;2022-10-31T16:40:14;14.60;99.90
11264;DHT22;5689;48.798;9.070;2022-10-31T16:42:44;14.50;99.90
11264;DHT22;5689;48.798;9.070;2022-10-31T16:45:16;14.50;99.90
11264;DHT22;5689;48.798;9.070;2022-10-31T16:47:44;14.40;99.90
11264;DHT22;5689;48.798;9.070;2022-10-31T16:50:14;14.40;99.90